createdAt,value
2019-04-29T00:01:43.029Z,98917.55
2019-04-29T00:04:14.809Z,98916.34
2019-04-29T00:06:46.558Z,98918.92
2019-04-29T00:09:19.033Z,98918.35
2019-04-29T00:11:50.637Z,98917.28
2019-04-29T00:14:22.650Z,98921.70
2019-04-29T00:17:02.096Z,98927.51
2019-04-29T00:19:41.307Z,98927.36
2019-04-29T00:22:12.863Z,98928.69
2019-04-29T00:24:45.087Z,98932.02
2019-04-29T00:27:16.486Z,98923.83
2019-04-29T00:29:48.257Z,98932.56
2019-04-29T00:32:20.123Z,98928.91
2019-04-29T00:34:51.978Z,98925.77
2019-04-29T00:37:31.106Z,98925.42
2019-04-29T00:40:23.091Z,98920.97
2019-04-29T00:42:59.610Z,98920.14
2019-04-29T00:45:31.573Z,98918.94
2019-04-29T00:48:03.202Z,98914.69
2019-04-29T00:50:35.018Z,98921.68
2019-04-29T00:53:06.536Z,98911.67
2019-04-29T00:55:38.085Z,98916.59
2019-04-29T00:58:09.746Z,98915.39
2019-04-29T01:00:42.955Z,98919.07
2019-04-29T01:03:14.889Z,98915.30
2019-04-29T01:05:46.538Z,98921.87
2019-04-29T01:08:18.346Z,98914.44
2019-04-29T01:10:50.599Z,98916.50
2019-04-29T01:13:22.623Z,98919.89
2019-04-29T01:15:54.379Z,98913.36
2019-04-29T01:18:25.930Z,98911.50
2019-04-29T01:20:57.729Z,98915.64
2019-04-29T01:23:29.482Z,98917.52
2019-04-29T01:26:02.759Z,98914.08
2019-04-29T01:28:35.743Z,98912.75
2019-04-29T01:31:09.155Z,98917.17
2019-04-29T01:33:40.794Z,98911.70
2019-04-29T01:36:16.981Z,98912.88
2019-04-29T01:38:49.718Z,98916.02
2019-04-29T01:41:25.511Z,98920.59
2019-04-29T01:44:04.257Z,98916.02
2019-04-29T01:46:35.870Z,98915.25
2019-04-29T01:49:07.617Z,98908.00
2019-04-29T01:51:39.603Z,98911.97
2019-04-29T01:54:11.465Z,98909.99
2019-04-29T01:56:43.705Z,98913.73
2019-04-29T01:59:15.451Z,98914.05
2019-04-29T02:01:47.330Z,98922.16
2019-04-29T02:04:19.106Z,98927.75
2019-04-29T02:06:50.848Z,98920.64
2019-04-29T02:09:33.469Z,98921.35
2019-04-29T02:12:05.457Z,98918.20
2019-04-29T02:14:37.477Z,98915.05
2019-04-29T02:17:09.357Z,98925.95
2019-04-29T02:19:40.976Z,98924.56
2019-04-29T02:22:17.447Z,98925.42
2019-04-29T02:24:50.744Z,98919.69
2019-04-29T02:27:22.267Z,98928.66
2019-04-29T02:29:54.206Z,98922.25
2019-04-29T02:32:26.133Z,98928.52
2019-04-29T02:34:58.015Z,98924.11
2019-04-29T02:37:31.063Z,98927.44
2019-04-29T02:40:07.124Z,98929.36
2019-04-29T02:42:40.773Z,98918.59
2019-04-29T02:45:16.854Z,98925.27
2019-04-29T02:47:48.718Z,98936.44
2019-04-29T02:50:21.628Z,98939.13
2019-04-29T02:52:53.229Z,98940.70
2019-04-29T02:55:27.430Z,98947.02
2019-04-29T02:58:03.690Z,98946.47
2019-04-29T03:00:37.223Z,98952.12
2019-04-29T03:03:10.368Z,98951.61
2019-04-29T03:05:43.437Z,98958.76
2019-04-29T03:08:14.989Z,98954.53
2019-04-29T03:10:46.770Z,98956.77
2019-04-29T03:13:18.768Z,98959.75
2019-04-29T03:15:50.900Z,98956.33
2019-04-29T03:18:24.305Z,98958.13
2019-04-29T03:20:57.366Z,98963.95
2019-04-29T03:23:29.449Z,98970.57
2019-04-29T03:26:00.975Z,98971.22
2019-04-29T03:28:32.907Z,98976.30
2019-04-29T03:31:04.736Z,98976.80
2019-04-29T03:33:36.589Z,98974.00
2019-04-29T03:36:08.422Z,98977.93
2019-04-29T03:38:39.899Z,98982.59
2019-04-29T03:41:11.530Z,98985.99
2019-04-29T03:43:43.588Z,98985.99
2019-04-29T03:46:15.275Z,98989.97
2019-04-29T03:48:47.146Z,98990.21
2019-04-29T03:51:18.971Z,98992.61
2019-04-29T03:53:50.415Z,98988.93
2019-04-29T03:56:22.174Z,98993.70
2019-04-29T03:58:53.703Z,98993.06
2019-04-29T04:01:27.134Z,98990.48
2019-04-29T04:04:03.320Z,98988.88
2019-04-29T04:06:36.915Z,98987.22
2019-04-29T04:09:16.290Z,98986.66
2019-04-29T04:11:48.026Z,98987.27
2019-04-29T04:14:19.667Z,98993.41
2019-04-29T04:17:11.585Z,98991.28
2019-04-29T04:19:43.340Z,98996.44
2019-04-29T04:22:15.437Z,99001.39
2019-04-29T04:24:47.448Z,98999.46
2019-04-29T04:27:19.128Z,99002.69
2019-04-29T04:29:51.935Z,98998.90
2019-04-29T04:32:23.763Z,99003.32
2019-04-29T04:34:55.830Z,99001.99
2019-04-29T04:37:27.932Z,99003.34
2019-04-29T04:40:00.073Z,99000.92
2019-04-29T04:42:32.156Z,99002.78
2019-04-29T04:45:04.179Z,98999.45
2019-04-29T04:47:36.148Z,99000.91
2019-04-29T04:50:09.118Z,98994.92
2019-04-29T04:52:41.312Z,98994.22
2019-04-29T04:55:13.470Z,98987.47
2019-04-29T04:57:45.515Z,99004.55
2019-04-29T05:00:25.502Z,99007.45
2019-04-29T05:02:57.133Z,99015.66
2019-04-29T05:05:28.994Z,99022.69
2019-04-29T05:08:01.143Z,99016.41
2019-04-29T05:10:33.236Z,99012.33
2019-04-29T05:13:05.068Z,99010.83
2019-04-29T05:15:36.795Z,99018.73
2019-04-29T05:18:08.410Z,99015.92
2019-04-29T05:20:40.376Z,99020.89
2019-04-29T05:23:12.117Z,99022.01
2019-04-29T05:25:43.891Z,99025.84
2019-04-29T05:28:15.431Z,99022.87
2019-04-29T05:30:47.062Z,99018.53
2019-04-29T05:33:20.048Z,99017.73
2019-04-29T05:36:01.477Z,99020.33
2019-04-29T05:38:40.478Z,99019.86
2019-04-29T05:41:12.139Z,99019.22
2019-04-29T05:44:04.165Z,99015.28
2019-04-29T05:46:40.612Z,99012.48
2019-04-29T05:49:14.134Z,99013.28
2019-04-29T05:51:47.199Z,99009.94
2019-04-29T05:54:20.403Z,99010.24
2019-04-29T05:56:52.051Z,99015.05
2019-04-29T05:59:24.133Z,99015.44
2019-04-29T06:01:55.672Z,99017.06
2019-04-29T06:04:28.743Z,99024.67
2019-04-29T06:07:00.509Z,99022.30
2019-04-29T06:09:32.411Z,99023.95
2019-04-29T06:12:05.254Z,99024.69
2019-04-29T06:14:36.968Z,99017.47
2019-04-29T06:17:08.770Z,99017.26
2019-04-29T06:19:41.091Z,99013.29
2019-04-29T06:22:12.730Z,99017.80
2019-04-29T06:24:44.666Z,99019.66
2019-04-29T06:27:16.416Z,99021.34
2019-04-29T06:29:48.191Z,99016.73
2019-04-29T06:32:20.195Z,99023.20
2019-04-29T06:34:53.398Z,99027.06
2019-04-29T06:37:25.206Z,99030.53
2019-04-29T06:39:56.866Z,99035.03
2019-04-29T06:42:28.513Z,99033.94
2019-04-29T06:45:00.154Z,99035.47
2019-04-29T06:47:32.068Z,99038.70
2019-04-29T06:50:08.205Z,99036.34
2019-04-29T06:52:39.622Z,99037.11
2019-04-29T06:55:11.582Z,99031.15
2019-04-29T06:57:43.136Z,99034.79
2019-04-29T07:00:17.564Z,99032.45
2019-04-29T07:02:51.023Z,99038.27
2019-04-29T07:05:22.937Z,99038.38
2019-04-29T07:07:54.585Z,99036.62
2019-04-29T07:10:27.130Z,99043.77
2019-04-29T07:12:59.108Z,99041.90
2019-04-29T07:15:31.105Z,99042.57
2019-04-29T07:18:02.854Z,99041.67
2019-04-29T07:20:37.052Z,99036.88
2019-04-29T07:23:08.004Z,99037.23
2019-04-29T07:25:39.637Z,99031.32
2019-04-29T07:28:13.681Z,99031.34
2019-04-29T07:31:00.477Z,99032.54
2019-04-29T07:33:22.678Z,99026.52
2019-04-29T07:35:51.187Z,99028.97
2019-04-29T07:38:22.518Z,99025.95
2019-04-29T07:40:54.552Z,99026.41
2019-04-29T07:43:26.563Z,99028.45
2019-04-29T07:46:03.801Z,99024.47
2019-04-29T07:48:36.851Z,99026.19
2019-04-29T07:51:06.640Z,99031.25
2019-04-29T07:53:45.183Z,99034.73
2019-04-29T07:56:11.811Z,99034.07
2019-04-29T07:58:43.547Z,99043.25
2019-04-29T08:01:19.910Z,99040.85
2019-04-29T08:03:49.522Z,99039.67
2019-04-29T08:06:22.048Z,99056.41
2019-04-29T08:08:55.503Z,99050.17
2019-04-29T08:11:27.142Z,99054.16
2019-04-29T08:14:01.564Z,99060.73
2019-04-29T08:16:33.238Z,99065.70
2019-04-29T08:19:05.835Z,99070.66
2019-04-29T08:21:37.769Z,99074.44
2019-04-29T08:24:11.557Z,99067.09
2019-04-29T08:26:47.467Z,99073.80
2019-04-29T08:29:16.618Z,99077.66
2019-04-29T08:31:51.808Z,99083.18
2019-04-29T08:34:23.071Z,99086.83
2019-04-29T08:36:55.306Z,99088.79
2019-04-29T08:39:29.434Z,99088.11
2019-04-29T08:42:03.876Z,99091.34
2019-04-29T08:44:37.198Z,99090.06
2019-04-29T08:47:17.258Z,99089.00
2019-04-29T08:49:49.028Z,99095.46
2019-04-29T08:52:20.877Z,99091.90
2019-04-29T08:54:55.299Z,99094.61
2019-04-29T08:57:26.160Z,99097.50
2019-04-29T08:59:57.795Z,99090.19
2019-04-29T09:02:35.145Z,99093.94
2019-04-29T09:05:11.474Z,99095.34
2019-04-29T09:07:40.982Z,99092.11
2019-04-29T09:10:13.411Z,99095.24
2019-04-29T09:12:45.379Z,99097.92
2019-04-29T09:15:17.914Z,99100.53
2019-04-29T09:17:49.519Z,99101.92
2019-04-29T09:20:21.248Z,99096.99
2019-04-29T09:23:00.551Z,99096.02
2019-04-29T09:25:34.098Z,99096.45
2019-04-29T09:28:18.240Z,99096.14
2019-04-29T09:30:49.298Z,99096.02
2019-04-29T09:33:21.355Z,99088.78
2019-04-29T09:35:53.090Z,99099.06
2019-04-29T09:38:24.824Z,99094.50
2019-04-29T09:41:13.297Z,99095.13
2019-04-29T09:43:49.580Z,99099.27
2019-04-29T09:46:23.266Z,99097.84
2019-04-29T09:48:54.836Z,99086.07
2019-04-29T09:51:27.666Z,99097.52
2019-04-29T09:53:59.692Z,99098.47
2019-04-29T09:56:34.522Z,99095.86
2019-04-29T09:59:22.944Z,99095.75
2019-04-29T10:01:58.905Z,99093.77
2019-04-29T10:04:38.236Z,99096.26
2019-04-29T10:07:11.833Z,99108.53
2019-04-29T10:09:56.506Z,99098.66
2019-04-29T10:12:18.061Z,99102.55
2019-04-29T10:14:50.088Z,99102.41
2019-04-29T10:17:26.355Z,99096.28
2019-04-29T10:20:08.501Z,99093.25
2019-04-29T10:22:40.091Z,99095.58
2019-04-29T10:25:12.339Z,99097.95
2019-04-29T10:27:44.033Z,99099.23
2019-04-29T10:30:18.151Z,99094.61
2019-04-29T10:32:50.312Z,99099.92
2019-04-29T10:35:22.161Z,99099.92
2019-04-29T10:37:54.014Z,99104.06
2019-04-29T10:40:27.768Z,99099.55
2019-04-29T10:43:17.359Z,99101.80
2019-04-29T10:45:59.809Z,99105.14
2019-04-29T10:48:33.301Z,99108.28
2019-04-29T10:51:06.087Z,99107.70
2019-04-29T10:53:37.938Z,99101.85
2019-04-29T10:56:09.625Z,99098.84
2019-04-29T10:58:41.563Z,99098.28
2019-04-29T11:01:30.370Z,99098.08
2019-04-29T11:04:02.834Z,99099.31
2019-04-29T11:06:35.713Z,99088.89
2019-04-29T11:09:16.113Z,99094.73
2019-04-29T11:11:49.433Z,99090.43
2019-04-29T11:14:21.056Z,99096.44
2019-04-29T11:16:53.373Z,99093.09
2019-04-29T11:19:25.425Z,99099.24
2019-04-29T11:22:02.181Z,99083.80
2019-04-29T11:24:35.738Z,99093.09
2019-04-29T11:27:12.719Z,99088.00
2019-04-29T11:29:44.348Z,99083.79
2019-04-29T11:32:33.222Z,99088.86
2019-04-29T11:35:17.131Z,99083.75
2019-04-29T11:37:49.949Z,99079.72
2019-04-29T11:40:26.115Z,99079.05
2019-04-29T11:42:56.702Z,99079.28
2019-04-29T11:45:28.581Z,99089.06
2019-04-29T11:48:00.648Z,99085.93
2019-04-29T11:50:34.022Z,99077.40
2019-04-29T11:53:06.543Z,99076.50
2019-04-29T11:55:38.359Z,99075.26
2019-04-29T11:58:12.130Z,99073.97
2019-04-29T12:01:04.027Z,99069.27
2019-04-29T12:03:43.384Z,99067.86
2019-04-29T12:06:20.262Z,99062.70
2019-04-29T12:08:53.396Z,99054.36
2019-04-29T12:11:23.733Z,99049.56
2019-04-29T12:13:59.027Z,99048.91
2019-04-29T12:16:41.998Z,99051.91
2019-04-29T12:19:22.613Z,99043.73
2019-04-29T12:21:56.040Z,99038.09
2019-04-29T12:24:27.701Z,99046.47
2019-04-29T12:26:59.402Z,99037.10
2019-04-29T12:29:31.433Z,99034.77
2019-04-29T12:32:07.721Z,99028.59
2019-04-29T12:34:44.151Z,99032.14
2019-04-29T12:37:34.544Z,99023.88
2019-04-29T12:40:17.618Z,99033.09
2019-04-29T12:43:00.210Z,99034.00
2019-04-29T12:45:39.938Z,99032.14
2019-04-29T12:48:24.021Z,99031.73
2019-04-29T12:50:44.991Z,99035.02
2019-04-29T12:53:17.136Z,99026.64
2019-04-29T12:55:53.535Z,99026.18
2019-04-29T12:58:25.878Z,99018.48
2019-04-29T13:01:01.101Z,99014.19
2019-04-29T13:03:40.097Z,99016.32
2019-04-29T13:06:12.983Z,99012.36
2019-04-29T13:08:46.238Z,99011.83
2019-04-29T13:11:19.185Z,99007.00
2019-04-29T13:13:56.568Z,99008.41
2019-04-29T13:16:43.354Z,99011.42
2019-04-29T13:19:20.288Z,99007.73
2019-04-29T13:21:50.214Z,99010.97
2019-04-29T13:24:24.431Z,99002.71
2019-04-29T13:26:56.061Z,99015.11
2019-04-29T13:29:31.876Z,99007.20
2019-04-29T13:32:01.868Z,99007.58
2019-04-29T13:34:35.561Z,99005.71
2019-04-29T13:37:18.119Z,99010.84
2019-04-29T13:39:40.905Z,99011.69
2019-04-29T13:42:15.849Z,99019.66
2019-04-29T13:45:06.148Z,99015.70
2019-04-29T13:47:29.083Z,99018.55
2019-04-29T13:50:20.221Z,99011.84
2019-04-29T13:52:37.710Z,99010.34
2019-04-29T13:55:17.840Z,99000.91
2019-04-29T13:57:45.113Z,99005.63
2019-04-29T14:00:24.579Z,99008.86
2019-04-29T14:02:59.336Z,99006.95
2019-04-29T14:05:32.529Z,99003.03
2019-04-29T14:08:04.908Z,99006.17
2019-04-29T14:10:36.914Z,99002.78
2019-04-29T14:13:15.206Z,99000.34
2019-04-29T14:15:42.875Z,98995.41
2019-04-29T14:18:15.362Z,98993.81
2019-04-29T14:20:51.762Z,98993.09
2019-04-29T14:23:21.955Z,98986.34
2019-04-29T14:25:54.647Z,98989.04
2019-04-29T14:28:26.603Z,98992.44
2019-04-29T14:30:58.551Z,98995.81
2019-04-29T14:33:32.309Z,98986.69
2019-04-29T14:36:06.146Z,98990.10
2019-04-29T14:38:40.762Z,98986.35
2019-04-29T14:41:14.043Z,98978.80
2019-04-29T14:43:46.335Z,98984.83
2019-04-29T14:46:35.809Z,98981.94
2019-04-29T14:49:11.851Z,98981.38
2019-04-29T14:51:43.219Z,98987.45
2019-04-29T14:54:14.992Z,98982.49
2019-04-29T14:56:46.845Z,98987.58
2019-04-29T14:59:18.762Z,98986.97
2019-04-29T15:01:58.402Z,98983.62
2019-04-29T15:04:31.978Z,98990.52
2019-04-29T15:07:03.601Z,98988.48
2019-04-29T15:09:46.398Z,98991.17
2019-04-29T15:12:12.138Z,99006.38
2019-04-29T15:14:59.116Z,98999.38
2019-04-29T15:17:36.260Z,99006.89
2019-04-29T15:20:11.374Z,99007.31
2019-04-29T15:22:43.076Z,98998.26
2019-04-29T15:25:16.815Z,98998.47
2019-04-29T15:27:48.496Z,99007.60
2019-04-29T15:30:20.431Z,99009.08
2019-04-29T15:32:53.178Z,99004.52
2019-04-29T15:35:25.694Z,99001.06
2019-04-29T15:37:58.013Z,99005.69
2019-04-29T15:40:30.006Z,99008.47
2019-04-29T15:43:02.169Z,98997.86
2019-04-29T15:45:34.480Z,99004.39
2019-04-29T15:48:06.427Z,98997.78
2019-04-29T15:50:39.127Z,98999.92
2019-04-29T15:53:10.827Z,99006.48
2019-04-29T15:55:43.233Z,99000.85
2019-04-29T15:58:15.360Z,99013.63
2019-04-29T16:00:47.529Z,99008.86
2019-04-29T16:03:20.816Z,99008.42
2019-04-29T16:06:19.660Z,99011.69
2019-04-29T16:08:49.392Z,99002.84
2019-04-29T16:11:41.413Z,99006.27
2019-04-29T16:14:15.081Z,99004.96
2019-04-29T16:16:47.080Z,99008.76
2019-04-29T16:19:19.123Z,99015.70
2019-04-29T16:21:51.111Z,99019.95
2019-04-29T16:24:27.313Z,99019.62
2019-04-29T16:27:01.206Z,99016.11
2019-04-29T16:29:31.011Z,99012.86
2019-04-29T16:32:05.020Z,99007.34
2019-04-29T16:34:44.639Z,99018.03
2019-04-29T16:37:18.556Z,99015.48
2019-04-29T16:39:45.266Z,99018.45
2019-04-29T16:42:21.833Z,99025.02
2019-04-29T16:44:53.951Z,99022.27
2019-04-29T16:47:26.013Z,99026.22
2019-04-29T16:50:04.687Z,99025.29
2019-04-29T16:52:31.647Z,99033.83
2019-04-29T16:55:05.827Z,99033.10
2019-04-29T16:57:38.234Z,99027.45
2019-04-29T17:00:15.801Z,99030.64
2019-04-29T17:02:47.078Z,99028.54
2019-04-29T17:05:19.457Z,99033.63
2019-04-29T17:07:52.988Z,99028.06
2019-04-29T17:10:29.495Z,99033.81
2019-04-29T17:13:01.566Z,99038.78
2019-04-29T17:15:33.951Z,99031.18
2019-04-29T17:18:06.580Z,99041.26
2019-04-29T17:20:38.269Z,99037.52
2019-04-29T17:23:10.159Z,99043.27
2019-04-29T17:25:42.297Z,99035.58
2019-04-29T17:28:24.448Z,99034.03
2019-04-29T17:31:12.302Z,99040.80
2019-04-29T17:35:16.999Z,99044.27
2019-04-29T17:36:23.195Z,99033.41
2019-04-29T17:38:51.628Z,99039.27
2019-04-29T17:41:23.763Z,99043.80
2019-04-29T17:44:14.558Z,99052.97
2019-04-29T17:46:47.655Z,99046.91
2019-04-29T17:49:22.126Z,99047.79
2019-04-29T17:51:59.553Z,99055.91
2019-04-29T17:54:45.220Z,99049.22
2019-04-29T17:57:28.158Z,99052.39
2019-04-29T18:00:05.085Z,99052.91
2019-04-29T18:02:57.402Z,99060.89
2019-04-29T18:05:34.512Z,99055.32
2019-04-29T18:08:11.392Z,99069.80
2019-04-29T18:10:45.786Z,99063.84
2019-04-29T18:13:23.755Z,99081.46
2019-04-29T18:16:01.684Z,99075.12
2019-04-29T18:18:28.798Z,99083.87
2019-04-29T18:21:15.664Z,99088.29
2019-04-29T18:23:59.557Z,99085.02
2019-04-29T18:26:33.755Z,99084.11
2019-04-29T18:29:08.056Z,99081.17
2019-04-29T18:31:40.211Z,99081.45
2019-04-29T18:34:15.185Z,99087.16
2019-04-29T18:36:49.427Z,99085.89
2019-04-29T18:39:31.465Z,99086.02
2019-04-29T18:42:06.841Z,99091.34
2019-04-29T18:44:42.051Z,99088.81
2019-04-29T18:47:21.994Z,99092.98
2019-04-29T18:49:51.137Z,99093.61
2019-04-29T18:52:27.878Z,99094.23
2019-04-29T18:55:05.870Z,99103.98
2019-04-29T18:57:45.881Z,99098.66
2019-04-29T19:00:21.929Z,99100.05
2019-04-29T19:03:01.112Z,99096.14
2019-04-29T19:05:41.742Z,99091.34
2019-04-29T19:08:23.069Z,99093.73
2019-04-29T19:10:52.144Z,99089.55
2019-04-29T19:13:30.832Z,99090.20
2019-04-29T19:16:10.298Z,99088.42
2019-04-29T19:18:47.498Z,99094.75
2019-04-29T19:21:23.509Z,99084.11
2019-04-29T19:23:57.408Z,99078.91
2019-04-29T19:26:36.224Z,99078.17
2019-04-29T19:29:20.964Z,99075.39
2019-04-29T19:32:09.315Z,99072.22
2019-04-29T19:34:50.067Z,99070.20
2019-04-29T19:37:32.496Z,99071.33
2019-04-29T19:40:04.916Z,99074.62
2019-04-29T19:42:40.993Z,99069.17
2019-04-29T19:45:20.392Z,99064.89
2019-04-29T19:47:56.217Z,99065.00
2019-04-29T19:50:35.855Z,99063.63
2019-04-29T19:53:12.156Z,99071.58
2019-04-29T19:55:47.508Z,99066.02
2019-04-29T19:58:28.483Z,99065.91
2019-04-29T20:01:00.184Z,99072.97
2019-04-29T20:03:37.921Z,99071.34
2019-04-29T20:06:24.702Z,99082.21
2019-04-29T20:08:54.869Z,99075.25
2019-04-29T20:11:32.852Z,99073.75
2019-04-29T20:14:06.476Z,99073.09
2019-04-29T20:16:54.776Z,99068.55
2019-04-29T20:19:27.436Z,99068.17
2019-04-29T20:22:05.581Z,99064.52
2019-04-29T20:24:37.661Z,99065.64
2019-04-29T20:27:11.636Z,99064.88
2019-04-29T20:29:48.353Z,99068.03
2019-04-29T20:32:31.865Z,99061.96
2019-04-29T20:35:10.117Z,99062.10
2019-04-29T20:37:43.663Z,99058.70
2019-04-29T20:40:16.220Z,99056.91
2019-04-29T20:42:49.361Z,99063.24
2019-04-29T20:45:25.428Z,99061.96
2019-04-29T20:47:56.077Z,99063.86
2019-04-29T20:50:28.262Z,99062.23
2019-04-29T20:53:11.356Z,99066.88
2019-04-29T20:55:43.187Z,99071.96
2019-04-29T20:58:15.684Z,99070.44
2019-04-29T21:00:47.935Z,99074.47
2019-04-29T21:03:27.825Z,99079.41
2019-04-29T21:05:54.981Z,99079.66
2019-04-29T21:08:26.802Z,99080.91
2019-04-29T21:11:00.571Z,99087.37
2019-04-29T21:13:37.052Z,99088.77
2019-04-29T21:16:10.548Z,99081.19
2019-04-29T21:18:45.472Z,99074.61
2019-04-29T21:21:15.913Z,99068.53
2019-04-29T21:23:48.314Z,99077.25
2019-04-29T21:26:20.037Z,99076.48
2019-04-29T21:28:52.947Z,99081.82
2019-04-29T21:31:25.566Z,99081.30
2019-04-29T21:33:58.859Z,99076.00
2019-04-29T21:36:38.333Z,99071.17
2019-04-29T21:39:22.099Z,99069.67
2019-04-29T21:41:58.742Z,99069.30
2019-04-29T21:44:29.691Z,99070.04
2019-04-29T21:47:04.691Z,99068.65
2019-04-29T21:49:44.957Z,99066.38
2019-04-29T21:52:09.662Z,99058.03
2019-04-29T21:54:44.630Z,99056.02
2019-04-29T21:57:17.020Z,99047.92
2019-04-29T21:59:49.355Z,99045.53
2019-04-29T22:02:21.523Z,99047.28
2019-04-29T22:04:55.213Z,99041.59
2019-04-29T22:07:27.199Z,99041.22
2019-04-29T22:09:59.309Z,99047.41
2019-04-29T22:12:31.520Z,99045.00
2019-04-29T22:15:05.891Z,99051.08
2019-04-29T22:17:37.716Z,99063.49
2019-04-29T22:20:11.489Z,99062.74
2019-04-29T22:22:45.241Z,99067.05
2019-04-29T22:25:16.800Z,99064.75
2019-04-29T22:27:49.041Z,99066.80
2019-04-29T22:30:22.363Z,99062.48
2019-04-29T22:32:58.048Z,99056.41
2019-04-29T22:35:32.798Z,99055.78
2019-04-29T22:38:01.582Z,99054.88
2019-04-29T22:40:40.754Z,99044.02
2019-04-29T22:43:14.277Z,99041.36
2019-04-29T22:45:45.314Z,99042.36
2019-04-29T22:48:19.811Z,99030.59
2019-04-29T22:50:51.637Z,99024.14
2019-04-29T22:53:24.875Z,99028.69
2019-04-29T22:55:56.749Z,99028.55
2019-04-29T22:58:28.764Z,99017.06
2019-04-29T23:01:02.456Z,99011.00
2019-04-29T23:03:37.500Z,98997.20
2019-04-29T23:06:08.489Z,98995.17
2019-04-29T23:08:40.372Z,98990.87
2019-04-29T23:11:12.352Z,98988.83
2019-04-29T23:13:46.168Z,98989.86
2019-04-29T23:16:17.851Z,98992.64
2019-04-29T23:18:49.866Z,98980.98
2019-04-29T23:21:44.798Z,98976.82
2019-04-29T23:24:17.605Z,98986.05
2019-04-29T23:26:49.526Z,98993.23
2019-04-29T23:29:21.603Z,99010.53
2019-04-29T23:31:55.287Z,99004.13
2019-04-29T23:34:29.221Z,99007.63
2019-04-29T23:37:00.801Z,99007.27
2019-04-29T23:39:34.822Z,99003.21
2019-04-29T23:42:12.209Z,99009.14
2019-04-29T23:44:42.370Z,99016.38
2019-04-29T23:47:15.809Z,99010.92
2019-04-29T23:49:47.740Z,99009.28
2019-04-29T23:52:19.610Z,99011.92
2019-04-29T23:54:51.441Z,99005.73
2019-04-29T23:57:28.534Z,99011.30
